Time;durP1;ratioP1;P1;durP2;ratioP2;P2;SDS_P1;SDS_P2;PMS_P1;PMS_P2;Temp;Humidity;BMP_temperature;BMP_pressure;BME280_temperature;BME280_humidity;BME280_pressure;Samples;Min_cycle;Max_cycle;Signal;HPM_P1;HPM_P2
2024/01/12 00:01:20;;;;;;;8.23;7.63;;;;;;;-4.43;100.00;99967.91;4134915;28;20603;-53
2024/01/12 00:03:22;;;;;;;6.73;6.07;;;;;;;-4.49;100.00;99977.25;4144735;28;20213;-53
2024/01/12 00:05:24;;;;;;;9.37;6.73;;;;;;;-4.50;100.00;99975.56;4137468;28;20205;-52
2024/01/12 00:07:26;;;;;;;10.23;7.23;;;;;;;-4.53;100.00;99974.94;4136204;28;20601;-52
2024/01/12 00:09:28;;;;;;;8.33;7.70;;;;;;;-4.56;100.00;99985.84;4142383;28;20780;-53
2024/01/12 00:11:33;;;;;;;11.23;9.30;;;;;;;-4.49;100.00;99989.75;4136917;28;20734;-52
2024/01/12 00:13:35;;;;;;;7.83;7.20;;;;;;;-4.49;100.00;99981.72;4148191;28;20251;-52
2024/01/12 00:15:37;;;;;;;9.40;7.90;;;;;;;-4.50;100.00;99991.56;4139333;28;20252;-54
2024/01/12 00:17:38;;;;;;;7.90;7.17;;;;;;;-4.57;100.00;99989.50;4139808;28;20225;-56
2024/01/12 00:19:40;;;;;;;7.67;6.93;;;;;;;-4.59;100.00;99986.09;4136310;28;20209;-54
2024/01/12 00:21:42;;;;;;;9.27;8.67;;;;;;;-4.61;100.00;99982.72;4136452;28;20288;-53
2024/01/12 00:23:44;;;;;;;8.37;7.67;;;;;;;-4.57;100.00;99978.81;4135063;28;20883;-53
2024/01/12 00:25:46;;;;;;;7.73;7.13;;;;;;;-4.49;100.00;99989.75;4134944;28;20304;-54
2024/01/12 00:27:48;;;;;;;10.37;7.73;;;;;;;-4.42;100.00;99986.47;4141821;28;20213;-54
2024/01/12 00:29:49;;;;;;;11.80;7.13;;;;;;;-4.56;100.00;99985.84;4119249;28;20217;-54
2024/01/12 00:31:51;;;;;;;8.97;8.37;;;;;;;-4.58;100.00;99993.13;4132824;28;21085;-55
2024/01/12 00:33:54;;;;;;;10.27;9.40;;;;;;;-4.59;100.00;99986.94;4136781;28;20213;-56
2024/01/12 00:35:56;;;;;;;7.63;7.00;;;;;;;-4.64;100.00;99994.47;4139976;28;20296;-56
2024/01/12 00:37:58;;;;;;;8.57;7.97;;;;;;;-4.68;100.00;99993.00;4139185;28;20510;-56
2024/01/12 00:39:59;;;;;;;9.37;8.60;;;;;;;-4.69;100.00;99995.78;4140428;28;20626;-53
2024/01/12 00:42:01;;;;;;;10.97;9.53;;;;;;;-4.68;100.00;99998.34;4138790;28;20233;-54
2024/01/12 00:44:04;;;;;;;9.23;8.17;;;;;;;-4.71;100.00;99997.72;4137874;28;20238;-53
2024/01/12 00:46:06;;;;;;;10.27;9.03;;;;;;;-4.75;100.00;100001.59;4137196;28;20740;-54
2024/01/12 00:48:08;;;;;;;7.53;7.03;;;;;;;-4.62;100.00;99997.00;4134304;28;20241;-53
2024/01/12 00:50:10;;;;;;;11.27;7.80;;;;;;;-4.73;100.00;99995.16;4123930;28;20342;-53
2024/01/12 00:52:12;;;;;;;10.40;9.47;;;;;;;-4.52;100.00;99998.88;4136603;28;20336;-54
2024/01/12 00:54:15;;;;;;;8.47;7.93;;;;;;;-4.48;100.00;99994.13;4139311;28;20726;-54
2024/01/12 00:56:16;;;;;;;9.60;8.03;;;;;;;-4.66;100.00;99993.72;4135151;28;20741;-53
2024/01/12 00:58:18;;;;;;;9.17;6.90;;;;;;;-4.79;100.00;99994.81;4135240;28;20205;-54
2024/01/12 01:00:20;;;;;;;8.50;7.70;;;;;;;-4.66;100.00;99995.56;4147142;28;20217;-56
2024/01/12 01:02:22;;;;;;;9.73;8.63;;;;;;;-4.71;100.00;100005.75;4138815;28;20292;-55
2024/01/12 01:04:25;;;;;;;11.70;7.47;;;;;;;-4.79;100.00;100005.47;4138375;28;20618;-54
2024/01/12 01:06:28;;;;;;;7.80;7.23;;;;;;;-4.69;100.00;99999.31;4133683;28;20209;-54
2024/01/12 01:08:29;;;;;;;11.03;7.73;;;;;;;-4.79;100.00;100000.16;4136558;28;20208;-54
2024/01/12 01:10:31;;;;;;;7.63;6.93;;;;;;;-4.80;100.00;99998.44;4133907;28;20213;-52
2024/01/12 01:12:33;;;;;;;8.27;6.87;;;;;;;-4.84;100.00;100004.97;4134166;28;20213;-51
2024/01/12 01:14:34;;;;;;;7.80;7.03;;;;;;;-4.68;100.00;100002.84;4139239;28;20216;-52
2024/01/12 01:16:36;;;;;;;14.50;5.27;;;;;;;-4.71;100.00;99997.72;4133755;28;20254;-52
2024/01/12 01:18:38;;;;;;;9.43;8.83;;;;;;;-4.74;100.00;99998.81;4128006;28;20294;-52
2024/01/12 01:20:40;;;;;;;6.77;6.27;;;;;;;-4.68;100.00;100000.19;4144120;28;20221;-52
2024/01/12 01:22:42;;;;;;;7.97;7.20;;;;;;;-4.82;100.00;100001.22;4122802;28;20298;-50
2024/01/12 01:24:44;;;;;;;8.73;8.10;;;;;;;-4.89;100.00;100000.00;4120773;28;20205;-51
2024/01/12 01:26:45;;;;;;;9.00;8.10;;;;;;;-4.92;100.00;100005.59;4134747;28;20208;-52
2024/01/12 01:28:47;;;;;;;7.80;7.20;;;;;;;-4.96;100.00;100013.91;4137616;28;20240;-52
2024/01/12 01:30:49;;;;;;;7.90;7.30;;;;;;;-4.81;100.00;100013.59;4136740;28;20237;-52
2024/01/12 01:32:51;;;;;;;7.87;7.17;;;;;;;-4.84;100.00;100013.84;4123312;28;20329;-51
2024/01/12 01:34:53;;;;;;;7.63;7.03;;;;;;;-4.74;100.00;100014.00;4142087;28;20213;-52
2024/01/12 01:37:01;;;;;;;9.57;8.60;;;;;;;-4.81;100.00;100012.78;4137985;28;20320;-51
2024/01/12 01:39:03;;;;;;;8.67;7.90;;;;;;;-4.81;100.00;100026.94;4138991;28;20611;-52
2024/01/12 01:41:05;;;;;;;8.33;7.07;;;;;;;-4.74;100.00;100025.50;4123542;28;20234;-51
2024/01/12 01:43:11;;;;;;;8.50;7.90;;;;;;;-4.87;100.00;100034.59;4136573;28;20213;-51
2024/01/12 01:45:12;;;;;;;11.53;8.07;;;;;;;-4.88;100.00;100041.72;4136598;28;20214;-52
2024/01/12 01:47:14;;;;;;;9.30;7.87;;;;;;;-4.80;100.00;100035.81;4135576;28;20209;-52
2024/01/12 01:49:16;;;;;;;9.30;8.70;;;;;;;-4.84;100.00;100034.34;4136531;28;20300;-52
2024/01/12 01:51:18;;;;;;;39.47;8.53;;;;;;;-4.81;100.00;100036.78;4122017;28;20229;-51
2024/01/12 01:53:20;;;;;;;7.93;7.33;;;;;;;-4.75;100.00;100038.97;4134802;28;20234;-50
2024/01/12 01:55:23;;;;;;;10.23;7.27;;;;;;;-4.78;100.00;100031.19;4137498;28;20287;-52
2024/01/12 01:57:27;;;;;;;14.30;8.40;;;;;;;-4.75;100.00;100022.94;4121234;28;20265;-51
2024/01/12 01:59:29;;;;;;;8.33;7.73;;;;;;;-4.70;100.00;100034.13;4144337;28;20241;-52
2024/01/12 02:01:31;;;;;;;9.57;8.53;;;;;;;-4.74;100.00;100040.69;4134092;28;20516;-51
2024/01/12 02:03:33;;;;;;;8.30;7.23;;;;;;;-4.75;100.00;100031.81;4134626;28;20205;-52
2024/01/12 02:05:35;;;;;;;14.67;10.53;;;;;;;-4.84;100.00;100024.53;4137876;28;20632;-51
2024/01/12 02:07:37;;;;;;;11.37;7.43;;;;;;;-4.83;100.00;100028.88;4135454;28;20307;-51
2024/01/12 02:09:39;;;;;;;10.97;10.23;;;;;;;-4.92;100.00;100021.59;4138458;28;21241;-51
2024/01/12 02:11:41;;;;;;;10.90;10.10;;;;;;;-4.95;100.00;100027.16;4118276;28;20229;-51
2024/01/12 02:13:43;;;;;;;8.77;7.40;;;;;;;-4.94;100.00;100028.84;4135939;28;20210;-51
2024/01/12 02:15:45;;;;;;;10.03;9.13;;;;;;;-4.92;100.00;100034.06;4137692;28;21137;-51
2024/01/12 02:17:47;;;;;;;10.00;9.20;;;;;;;-4.90;100.00;100037.47;4137818;28;20225;-52
2024/01/12 02:19:56;;;;;;;8.40;7.90;;;;;;;-4.80;100.00;100051.81;4135576;28;20232;-52
2024/01/12 02:21:58;;;;;;;12.43;8.30;;;;;;;-4.83;100.00;100046.72;4146973;28;20319;-54
2024/01/12 02:24:00;;;;;;;8.63;8.10;;;;;;;-4.92;100.00;100050.09;4138072;28;20221;-52
2024/01/12 02:26:02;;;;;;;9.70;9.00;;;;;;;-4.97;100.00;100033.56;4137210;28;20540;-53
2024/01/12 02:28:04;;;;;;;8.70;8.10;;;;;;;-4.98;100.00;100039.88;4133208;28;20229;-52
2024/01/12 02:30:06;;;;;;;7.13;6.80;;;;;;;-4.99;100.00;100043.50;4137182;28;20217;-52
2024/01/12 02:32:08;;;;;;;10.80;7.07;;;;;;;-5.02;100.00;100041.06;4133823;28;20234;-52
2024/01/12 02:34:10;;;;;;;9.07;8.33;;;;;;;-5.00;100.00;100045.31;4133978;28;20236;-51
2024/01/12 02:36:12;;;;;;;9.70;9.07;;;;;;;-4.87;100.00;100039.91;4134960;28;20209;-51
2024/01/12 02:38:14;;;;;;;8.70;8.10;;;;;;;-5.03;100.00;100040.22;4136145;28;20233;-51
2024/01/12 02:40:16;;;;;;;17.23;9.20;;;;;;;-5.03;100.00;100032.22;4132951;28;20702;-51
2024/01/12 02:42:17;;;;;;;9.50;8.70;;;;;;;-5.07;100.00;100021.91;4133952;28;20718;-53
2024/01/12 02:44:19;;;;;;;11.33;8.83;;;;;;;-5.08;100.00;100014.88;4135497;28;20256;-50
2024/01/12 02:46:21;;;;;;;9.67;7.03;;;;;;;-5.08;100.00;100015.69;4136504;28;20217;-51
2024/01/12 02:48:22;;;;;;;8.23;7.43;;;;;;;-5.04;100.00;100013.66;4137007;28;20205;-51
2024/01/12 02:50:24;;;;;;;11.17;9.67;;;;;;;-5.02;100.00;100014.38;4133843;28;20235;-51
2024/01/12 02:52:26;;;;;;;10.23;9.37;;;;;;;-4.98;100.00;100005.19;4136967;28;20241;-53
2024/01/12 02:54:28;;;;;;;10.37;9.47;;;;;;;-4.98;100.00;100010.53;4136717;28;20495;-53
2024/01/12 02:56:30;;;;;;;13.73;8.40;;;;;;;-4.93;100.00;100011.03;4120684;28;20221;-53
2024/01/12 02:58:31;;;;;;;13.07;8.00;;;;;;;-4.93;100.00;100013.69;4117663;28;20292;-53
2024/01/12 03:00:33;;;;;;;15.10;9.13;;;;;;;-4.85;100.00;100008.63;4138157;28;20276;-51
2024/01/12 03:02:35;;;;;;;13.80;10.43;;;;;;;-4.85;100.00;100016.63;4137333;28;20217;-52
2024/01/12 03:04:37;;;;;;;7.90;6.77;;;;;;;-4.83;100.00;100004.00;4133845;28;20674;-53
2024/01/12 03:06:39;;;;;;;11.20;10.27;;;;;;;-4.76;100.00;100002.56;4121655;28;20211;-52
2024/01/12 03:08:40;;;;;;;14.20;8.97;;;;;;;-4.80;100.00;100001.13;4133977;28;20210;-53
2024/01/12 03:10:45;;;;;;;16.30;10.83;;;;;;;-4.82;100.00;100000.38;4136272;28;20287;-51
2024/01/12 03:12:46;;;;;;;15.20;12.50;;;;;;;-4.78;100.00;99989.34;4137616;28;20209;-53
2024/01/12 03:14:48;;;;;;;12.10;10.30;;;;;;;-4.78;100.00;99984.03;4138530;28;20209;-52
2024/01/12 03:16:50;;;;;;;11.40;10.67;;;;;;;-4.55;100.00;99983.06;4133818;28;20689;-53
2024/01/12 03:18:52;;;;;;;17.23;9.43;;;;;;;-4.66;100.00;99993.72;4135832;28;20200;-53
2024/01/12 03:20:54;;;;;;;17.07;10.93;;;;;;;-4.66;100.00;99984.88;4137366;28;20497;-53
2024/01/12 03:22:55;;;;;;;15.30;10.00;;;;;;;-4.64;100.00;99982.94;4135897;28;20212;-53
2024/01/12 03:24:57;;;;;;;9.37;8.30;;;;;;;-4.52;100.00;99981.97;4134617;28;20664;-54
2024/01/12 03:26:59;;;;;;;12.30;10.13;;;;;;;-4.51;100.00;99983.69;4135858;28;20539;-53
2024/01/12 03:29:01;;;;;;;9.90;8.17;;;;;;;-4.48;100.00;99989.63;4147269;28;20213;-52
2024/01/12 03:31:03;;;;;;;13.63;10.37;;;;;;;-4.53;100.00;99982.97;4132933;28;20229;-53
2024/01/12 03:33:07;;;;;;;14.97;9.07;;;;;;;-4.50;100.00;99990.72;4143663;28;20337;-53
2024/01/12 03:35:09;;;;;;;10.30;9.37;;;;;;;-4.44;100.00;99975.09;4142077;28;20248;-53
2024/01/12 03:37:11;;;;;;;13.30;9.43;;;;;;;-4.41;100.00;99982.84;4140365;28;20228;-53
2024/01/12 03:39:13;;;;;;;14.33;9.93;;;;;;;-4.32;100.00;99989.28;4132339;28;20781;-53
2024/01/12 03:41:15;;;;;;;12.80;11.87;;;;;;;-4.26;100.00;99983.47;4136251;28;20632;-52
2024/01/12 03:43:16;;;;;;;19.80;9.83;;;;;;;-4.24;100.00;99990.38;4126288;28;20591;-52
2024/01/12 03:45:18;;;;;;;10.17;9.17;;;;;;;-4.23;100.00;99983.19;4143912;28;20290;-53
2024/01/12 03:47:20;;;;;;;15.03;10.13;;;;;;;-4.30;100.00;99982.00;4138663;28;20206;-53
2024/01/12 03:49:22;;;;;;;12.07;9.33;;;;;;;-4.18;100.00;99975.69;4142610;28;20219;-53
2024/01/12 03:51:24;;;;;;;9.87;9.20;;;;;;;-4.17;100.00;99977.38;4137319;28;20265;-52
2024/01/12 03:53:26;;;;;;;19.23;10.90;;;;;;;-4.15;100.00;99973.63;4147093;28;20275;-53
2024/01/12 03:55:27;;;;;;;14.27;10.70;;;;;;;-4.05;100.00;99981.75;4139519;28;20295;-52
2024/01/12 03:57:29;;;;;;;10.83;9.27;;;;;;;-4.04;100.00;99978.09;4138955;28;20300;-52
2024/01/12 03:59:31;;;;;;;15.07;10.50;;;;;;;-4.02;100.00;99976.13;4140239;28;20248;-52
2024/01/12 04:01:32;;;;;;;19.47;10.93;;;;;;;-3.99;100.00;99974.06;4137704;28;20279;-53
2024/01/12 04:03:34;;;;;;;10.03;9.33;;;;;;;-3.99;100.00;99981.25;4140356;28;20705;-52
2024/01/12 04:05:36;;;;;;;12.97;9.43;;;;;;;-3.97;100.00;99976.63;4139849;28;20831;-52
2024/01/12 04:07:38;;;;;;;12.97;8.07;;;;;;;-3.94;100.00;99976.41;4135660;28;20840;-53
2024/01/12 04:09:41;;;;;;;11.90;9.87;;;;;;;-3.91;100.00;99978.81;4139919;28;20213;-53
2024/01/12 04:11:43;;;;;;;8.50;7.83;;;;;;;-3.88;100.00;99974.06;4139207;28;20222;-53
2024/01/12 04:13:45;;;;;;;10.87;9.90;;;;;;;-3.86;100.00;99977.44;4140322;28;21457;-53
2024/01/12 04:15:46;;;;;;;11.13;9.47;;;;;;;-3.83;100.00;99981.72;4120108;28;20210;-53
2024/01/12 04:17:48;;;;;;;13.77;12.37;;;;;;;-3.81;100.00;99980.59;4134804;28;20261;-52
2024/01/12 04:19:50;;;;;;;14.90;10.27;;;;;;;-3.76;100.00;99982.91;4140374;28;20309;-53
2024/01/12 04:21:52;;;;;;;9.17;7.53;;;;;;;-3.70;100.00;99987.75;4135905;28;20234;-52
2024/01/12 04:23:54;;;;;;;11.43;10.27;;;;;;;-3.64;100.00;99976.56;4123566;28;20252;-52
2024/01/12 04:25:55;;;;;;;15.00;9.60;;;;;;;-3.53;100.00;99980.06;4142082;28;20236;-52
2024/01/12 04:27:57;;;;;;;8.97;7.07;;;;;;;-3.58;100.00;99978.75;4137782;28;20301;-52
2024/01/12 04:29:59;;;;;;;9.37;8.40;;;;;;;-3.46;100.00;99975.91;4135173;28;20204;-53
2024/01/12 04:32:01;;;;;;;12.13;8.33;;;;;;;-3.54;100.00;99982.88;4139371;28;21142;-53
2024/01/12 04:34:03;;;;;;;9.40;8.10;;;;;;;-3.39;100.00;99985.13;4139670;28;20205;-51
2024/01/12 04:36:06;;;;;;;10.70;9.63;;;;;;;-3.52;100.00;99987.13;4138795;28;20227;-52
2024/01/12 04:38:11;;;;;;;8.27;7.53;;;;;;;-3.53;100.00;99979.22;4136431;28;20267;-53
2024/01/12 04:40:12;;;;;;;22.83;8.03;;;;;;;-3.49;100.00;99980.66;4139132;28;20213;-53
2024/01/12 04:42:14;;;;;;;9.50;8.63;;;;;;;-3.40;100.00;99986.09;4135272;28;20226;-52
2024/01/12 04:44:16;;;;;;;10.83;9.93;;;;;;;-3.44;100.00;99990.00;4137845;28;20202;-51
2024/01/12 04:46:18;;;;;;;10.93;9.87;;;;;;;-3.40;100.00;99986.09;4134804;28;20304;-52
2024/01/12 04:48:19;;;;;;;12.30;9.13;;;;;;;-3.31;100.00;99987.16;4132122;28;21418;-52
2024/01/12 04:50:21;;;;;;;8.90;7.53;;;;;;;-3.38;100.00;99972.59;4135514;28;20308;-52
2024/01/12 04:52:23;;;;;;;9.63;8.93;;;;;;;-3.37;100.00;99974.28;4139626;28;20312;-52
2024/01/12 04:54:25;;;;;;;9.60;8.57;;;;;;;-3.39;100.00;99971.75;4138509;28;20259;-52
2024/01/12 04:56:27;;;;;;;11.70;10.77;;;;;;;-3.36;100.00;99973.31;4136329;28;20218;-52
2024/01/12 04:58:28;;;;;;;11.10;7.70;;;;;;;-3.33;100.00;99975.75;4134842;28;20679;-51
2024/01/12 05:00:30;;;;;;;12.20;7.70;;;;;;;-3.38;100.00;99973.47;4133352;28;20209;-52
2024/01/12 05:02:32;;;;;;;9.53;8.70;;;;;;;-3.26;100.00;99971.59;4122277;28;20296;-51
2024/01/12 05:04:34;;;;;;;8.30;7.67;;;;;;;-3.30;100.00;99978.16;4138018;28;20762;-51
2024/01/12 05:06:36;;;;;;;9.40;8.50;;;;;;;-3.28;100.00;99978.91;4135669;28;20217;-52
2024/01/12 05:08:38;;;;;;;8.20;7.63;;;;;;;-3.26;100.00;99977.75;4138819;28;20216;-53
2024/01/12 05:10:40;;;;;;;9.70;8.77;;;;;;;-3.09;100.00;99984.38;4153286;28;20270;-52
2024/01/12 05:12:41;;;;;;;8.73;7.60;;;;;;;-3.15;100.00;99984.94;4137790;28;22120;-52
2024/01/12 05:14:43;;;;;;;8.20;7.50;;;;;;;-3.17;100.00;99989.53;4138771;28;20297;-52
2024/01/12 05:16:48;;;;;;;22.80;8.77;;;;;;;-3.21;100.00;99990.78;4136501;28;20213;-52
2024/01/12 05:18:50;;;;;;;10.17;9.40;;;;;;;-3.18;100.00;99985.16;4135690;28;20232;-52
2024/01/12 05:20:52;;;;;;;12.37;11.20;;;;;;;-3.10;100.00;99996.94;4135209;28;20233;-52
2024/01/12 05:22:53;;;;;;;11.80;10.63;;;;;;;-3.14;100.00;100000.00;4135081;28;20214;-51
2024/01/12 05:24:55;;;;;;;9.97;9.10;;;;;;;-3.08;100.00;99991.47;4136721;28;20214;-52
2024/01/12 05:26:57;;;;;;;9.87;9.10;;;;;;;-3.02;100.00;99990.97;4135711;28;20277;-51
2024/01/12 05:28:59;;;;;;;11.10;8.43;;;;;;;-3.09;100.00;99992.41;4133355;28;20202;-52
2024/01/12 05:31:00;;;;;;;10.53;9.30;;;;;;;-3.05;100.00;99996.53;4134079;28;20228;-52
2024/01/12 05:33:02;;;;;;;8.87;8.00;;;;;;;-3.07;100.00;99993.16;4134540;28;20217;-51
2024/01/12 05:35:05;;;;;;;15.73;11.30;;;;;;;-3.02;100.00;99980.25;4133093;28;20221;-52
2024/01/12 05:37:06;;;;;;;7.47;6.87;;;;;;;-3.00;100.00;99981.78;4131129;28;20213;-52
2024/01/12 05:39:08;;;;;;;10.37;8.07;;;;;;;-3.05;100.00;99980.47;4134091;28;20237;-52
2024/01/12 05:41:10;;;;;;;9.03;8.13;;;;;;;-3.05;100.00;99981.34;4134242;28;20568;-51
2024/01/12 05:43:12;;;;;;;7.13;6.60;;;;;;;-3.03;100.00;99991.91;4136486;28;20210;-53
2024/01/12 05:45:14;;;;;;;6.97;6.43;;;;;;;-2.98;100.00;99982.53;4138070;28;20205;-51
2024/01/12 05:47:15;;;;;;;10.30;8.30;;;;;;;-2.96;100.00;99979.69;4138833;28;20209;-52
2024/01/12 05:49:17;;;;;;;7.93;7.30;;;;;;;-2.89;100.00;99980.88;4132804;28;20224;-52
2024/01/12 05:51:20;;;;;;;10.73;9.30;;;;;;;-2.93;100.00;99980.28;4138720;28;20291;-52
2024/01/12 05:53:25;;;;;;;9.73;8.97;;;;;;;-2.92;100.00;99981.16;4139127;28;20209;-51
2024/01/12 05:55:27;;;;;;;10.93;7.60;;;;;;;-2.99;100.00;99979.97;4135099;28;20694;-53
2024/01/12 05:57:31;;;;;;;8.67;7.33;;;;;;;-2.94;100.00;99978.59;4139299;28;20679;-52
2024/01/12 05:59:33;;;;;;;10.23;9.37;;;;;;;-2.92;100.00;99983.81;4142117;28;20229;-53
2024/01/12 06:01:35;;;;;;;8.90;8.20;;;;;;;-2.85;100.00;99987.69;4134939;28;20253;-53
2024/01/12 06:03:37;;;;;;;9.53;8.57;;;;;;;-2.85;100.00;99993.03;4135425;28;20296;-52
2024/01/12 06:05:40;;;;;;;7.57;6.90;;;;;;;-2.85;100.00;99987.69;4132516;28;20209;-52
2024/01/12 06:07:43;;;;;;;5.80;5.30;;;;;;;-2.78;100.00;99995.06;4148473;28;20263;-52
2024/01/12 06:09:44;;;;;;;9.43;8.63;;;;;;;-2.83;100.00;99983.03;4135579;28;20220;-52
2024/01/12 06:11:46;;;;;;;8.03;7.33;;;;;;;-2.77;100.00;99985.19;4140586;28;20229;-52
2024/01/12 06:13:48;;;;;;;13.03;8.13;;;;;;;-2.79;100.00;99981.81;4139240;28;20214;-51
2024/01/12 06:15:50;;;;;;;9.93;9.07;;;;;;;-2.83;100.00;99975.00;4137441;28;20216;-52
2024/01/12 06:17:57;;;;;;;7.10;6.40;;;;;;;-2.82;100.00;99976.72;4137164;28;20284;-52
2024/01/12 06:19:59;;;;;;;9.10;8.33;;;;;;;-2.83;100.00;99973.19;4150356;28;20213;-52
2024/01/12 06:22:01;;;;;;;17.17;7.80;;;;;;;-2.83;100.00;99970.50;4137074;28;20623;-52
2024/01/12 06:24:03;;;;;;;9.27;8.67;;;;;;;-2.81;100.00;99967.72;4135677;28;20218;-52
2024/01/12 06:26:05;;;;;;;7.30;6.73;;;;;;;-2.81;100.00;99967.72;4142416;28;20217;-52
2024/01/12 06:28:06;;;;;;;6.83;6.33;;;;;;;-2.74;100.00;99975.06;4136660;28;20214;-53
2024/01/12 06:30:08;;;;;;;7.27;6.77;;;;;;;-2.73;100.00;99975.94;4138603;28;20295;-52
2024/01/12 06:32:10;;;;;;;12.43;7.30;;;;;;;-2.69;100.00;99977.34;4150499;28;20237;-52
2024/01/12 06:34:14;;;;;;;10.77;8.03;;;;;;;-2.73;100.00;99981.28;4138017;28;20213;-51
2024/01/12 06:36:16;;;;;;;7.47;7.00;;;;;;;-2.70;100.00;99976.53;4138298;28;20232;-51
2024/01/12 06:38:18;;;;;;;10.10;8.80;;;;;;;-2.68;100.00;99979.06;4137535;28;20237;-52
2024/01/12 06:40:20;;;;;;;8.37;7.77;;;;;;;-2.63;100.00;99979.50;4135404;28;20649;-52
2024/01/12 06:42:22;;;;;;;6.63;6.00;;;;;;;-2.63;100.00;99983.06;4136832;28;20654;-52
2024/01/12 06:44:24;;;;;;;8.10;7.47;;;;;;;-2.61;100.00;99974.88;4135194;28;20212;-52
2024/01/12 06:46:25;;;;;;;7.67;7.07;;;;;;;-2.60;100.00;99968.53;4137373;28;20695;-53
2024/01/12 06:48:27;;;;;;;11.40;6.10;;;;;;;-2.56;100.00;99969.97;4148276;28;20206;-52
2024/01/12 06:50:29;;;;;;;8.07;7.20;;;;;;;-2.61;100.00;99964.19;4140373;28;20232;-52
2024/01/12 06:52:31;;;;;;;8.83;5.93;;;;;;;-2.60;100.00;99965.88;4134358;28;20264;-51
2024/01/12 06:54:33;;;;;;;6.17;5.70;;;;;;;-2.62;100.00;99973.19;4136376;28;20232;-53
2024/01/12 06:56:37;;;;;;;12.50;7.90;;;;;;;-2.56;100.00;99962.78;4136501;28;20600;-53
2024/01/12 06:58:39;;;;;;;8.40;7.80;;;;;;;-2.63;100.00;99976.81;4118231;28;20265;-51
2024/01/12 07:00:41;;;;;;;10.27;7.03;;;;;;;-2.61;100.00;99969.53;4139751;28;20252;-52
2024/01/12 07:02:43;;;;;;;7.40;6.63;;;;;;;-2.55;100.00;99975.19;4138093;28;20240;-52
2024/01/12 07:04:45;;;;;;;11.53;8.10;;;;;;;-2.60;100.00;99981.94;4136670;28;20257;-52
2024/01/12 07:06:46;;;;;;;9.77;8.93;;;;;;;-2.63;100.00;99985.72;4137114;28;20252;-52
2024/01/12 07:08:48;;;;;;;8.33;7.47;;;;;;;-2.55;100.00;99985.91;4135255;28;20194;-52
2024/01/12 07:10:50;;;;;;;8.47;6.37;;;;;;;-2.62;100.00;99990.09;4123432;28;20226;-52
2024/01/12 07:12:52;;;;;;;8.87;8.07;;;;;;;-2.53;100.00;99997.34;4143009;28;20201;-52
2024/01/12 07:14:54;;;;;;;7.67;6.83;;;;;;;-2.58;100.00;99996.91;4135069;28;20212;-51
2024/01/12 07:16:56;;;;;;;7.37;6.73;;;;;;;-2.58;100.00;100004.94;4140328;28;20569;-52
2024/01/12 07:18:57;;;;;;;9.80;8.97;;;;;;;-2.60;100.00;100008.72;4141409;28;20304;-52
2024/01/12 07:21:03;;;;;;;7.47;6.87;;;;;;;-2.59;100.00;100005.06;4140944;28;20228;-52
2024/01/12 07:23:05;;;;;;;8.77;7.83;;;;;;;-2.47;100.00;100006.69;4141066;28;20247;-51
2024/01/12 07:25:07;;;;;;;10.63;7.80;;;;;;;-2.56;100.00;100015.50;4134781;28;20276;-52
2024/01/12 07:27:09;;;;;;;7.33;5.70;;;;;;;-2.56;100.00;100027.09;4132285;28;20209;-52
2024/01/12 07:29:11;;;;;;;8.83;8.20;;;;;;;-2.52;100.00;100017.81;4137297;28;20822;-52
2024/01/12 07:31:12;;;;;;;6.53;6.03;;;;;;;-2.56;100.00;100010.16;4133755;28;20226;-52
2024/01/12 07:33:14;;;;;;;8.57;7.07;;;;;;;-2.55;100.00;100014.56;4137806;28;20205;-52
2024/01/12 07:35:16;;;;;;;9.20;7.47;;;;;;;-2.52;100.00;100016.94;4137303;28;20657;-52
2024/01/12 07:37:18;;;;;;;9.10;7.87;;;;;;;-2.53;100.00;100020.63;4137690;28;20236;-52
2024/01/12 07:39:20;;;;;;;10.20;8.93;;;;;;;-2.45;100.00;100023.47;4138428;28;20757;-52
2024/01/12 07:41:21;;;;;;;8.13;7.23;;;;;;;-2.50;100.00;100017.66;4152377;28;20246;-51
2024/01/12 07:43:23;;;;;;;8.67;7.97;;;;;;;-2.46;100.00;100021.78;4152096;28;20296;-53
2024/01/12 07:45:25;;;;;;;9.10;8.20;;;;;;;-2.45;100.00;100028.84;4135650;28;20213;-51
2024/01/12 07:47:27;;;;;;;11.40;6.70;;;;;;;-2.42;100.00;100028.59;4133761;28;20205;-52
2024/01/12 07:49:29;;;;;;;9.87;8.43;;;;;;;-2.42;100.00;100025.91;4141640;28;20233;-53
2024/01/12 07:51:30;;;;;;;7.33;5.57;;;;;;;-2.39;100.00;100028.31;4121832;28;20621;-52
2024/01/12 07:53:33;;;;;;;7.73;6.43;;;;;;;-2.35;100.00;100029.75;4136431;28;20436;-51
2024/01/12 07:55:34;;;;;;;8.13;7.43;;;;;;;-2.37;100.00;100031.69;4135903;28;20718;-52
2024/01/12 07:57:36;;;;;;;7.27;6.60;;;;;;;-2.30;100.00;100038.22;4133733;28;20248;-53
2024/01/12 07:59:38;;;;;;;6.53;6.03;;;;;;;-2.21;100.00;100032.09;4137146;28;20229;-52
2024/01/12 08:01:41;;;;;;;9.77;8.70;;;;;;;-2.29;100.00;100023.84;4134306;28;20734;-52
2024/01/12 08:03:44;;;;;;;8.13;7.47;;;;;;;-2.30;100.00;100020.34;4121011;28;20293;-51
2024/01/12 08:05:45;;;;;;;8.83;6.80;;;;;;;-2.25;100.00;100027.97;4136119;28;20213;-51
2024/01/12 08:07:48;;;;;;;7.47;6.70;;;;;;;-2.22;100.00;100033.09;4139008;28;20208;-51
2024/01/12 08:09:50;;;;;;;7.37;6.77;;;;;;;-2.13;100.00;100038.47;4135018;28;20551;-52
2024/01/12 08:11:52;;;;;;;5.77;5.03;;;;;;;-2.14;100.00;100038.63;4126440;28;20233;-51
2024/01/12 08:13:54;;;;;;;6.57;6.07;;;;;;;-2.13;100.00;100040.31;4148659;28;20767;-52
2024/01/12 08:15:57;;;;;;;6.90;6.30;;;;;;;-2.07;100.00;100040.63;4141255;28;20861;-52
2024/01/12 08:17:59;;;;;;;6.73;6.17;;;;;;;-2.13;100.00;100040.31;4142161;28;20663;-51
2024/01/12 08:20:01;;;;;;;7.03;6.17;;;;;;;-2.10;100.00;100037.34;4130399;28;20234;-49
2024/01/12 08:22:03;;;;;;;6.93;6.23;;;;;;;-2.05;100.00;100032.44;4140871;28;20257;-52
2024/01/12 08:24:05;;;;;;;5.90;5.17;;;;;;;-2.08;100.00;100038.09;4129019;28;20209;-53
2024/01/12 08:26:07;;;;;;;6.60;5.73;;;;;;;-2.05;100.00;100041.34;4135032;28;20253;-52
2024/01/12 08:28:09;;;;;;;7.17;6.57;;;;;;;-2.08;100.00;100043.47;4135819;28;20252;-52
2024/01/12 08:30:11;;;;;;;6.93;6.33;;;;;;;-2.01;100.00;100053.50;4131895;28;20211;-51
2024/01/12 08:32:13;;;;;;;6.60;6.13;;;;;;;-2.00;100.00;100046.31;4133596;28;20237;-52
2024/01/12 08:34:14;;;;;;;10.90;6.07;;;;;;;-1.99;100.00;100064.09;4135697;28;20792;-52
2024/01/12 08:36:16;;;;;;;10.07;7.53;;;;;;;-1.99;100.00;100058.72;4140003;28;20214;-52
2024/01/12 08:38:19;;;;;;;7.03;6.30;;;;;;;-2.01;100.00;100060.72;4135626;28;20221;-52
2024/01/12 08:40:20;;;;;;;5.17;4.60;;;;;;;-1.84;100.00;100054.69;4138747;28;20644;-52
2024/01/12 08:42:22;;;;;;;7.03;6.53;;;;;;;-1.90;100.00;100064.16;4120516;28;20230;-52
2024/01/12 08:44:24;;;;;;;7.83;5.23;;;;;;;-1.95;100.00;100049.44;4135145;28;20684;-52
2024/01/12 08:46:26;;;;;;;6.30;4.80;;;;;;;-1.85;100.00;100050.34;4135990;28;20224;-51
2024/01/12 08:48:28;;;;;;;5.33;4.93;;;;;;;-1.79;100.00;100056.03;4135991;28;20210;-51
2024/01/12 08:50:30;;;;;;;6.57;6.17;;;;;;;-1.79;100.00;100049.78;4142159;28;20201;-52
2024/01/12 08:52:34;;;;;;;5.27;4.80;;;;;;;-1.79;100.00;100049.78;4139259;28;20663;-52
2024/01/12 08:54:36;;;;;;;4.73;4.03;;;;;;;-1.77;100.00;100054.03;4134122;28;20590;-53
2024/01/12 08:56:38;;;;;;;3.70;3.40;;;;;;;-1.81;100.00;100057.13;4136122;28;20209;-52
2024/01/12 08:58:40;;;;;;;4.33;4.03;;;;;;;-1.87;100.00;100052.31;4123199;28;21102;-52
2024/01/12 09:00:42;;;;;;;6.50;5.97;;;;;;;-1.78;100.00;100056.84;4137882;28;20253;-52
2024/01/12 09:02:44;;;;;;;7.87;5.03;;;;;;;-1.79;100.00;100052.47;4140497;28;20213;-52
2024/01/12 09:04:47;;;;;;;5.13;4.73;;;;;;;-1.76;100.00;100062.91;4141669;28;20221;-51
2024/01/12 09:06:49;;;;;;;6.27;5.73;;;;;;;-1.78;100.00;100067.59;4140647;28;20292;-52
2024/01/12 09:08:54;;;;;;;4.47;4.07;;;;;;;-1.61;100.00;100059.75;4139434;28;20813;-53
2024/01/12 09:10:57;;;;;;;3.80;3.37;;;;;;;-1.66;100.00;100056.63;4138408;28;20252;-53
2024/01/12 09:12:59;;;;;;;4.03;3.73;;;;;;;-1.73;100.00;100063.50;4137531;28;20213;-53
2024/01/12 09:15:01;;;;;;;4.10;3.73;;;;;;;-1.76;100.00;100058.41;4139533;28;20205;-52
2024/01/12 09:17:03;;;;;;;5.07;4.67;;;;;;;-1.74;100.00;100063.66;4140870;28;20236;-53
2024/01/12 09:19:06;;;;;;;4.87;4.57;;;;;;;-1.67;100.00;100064.81;4137255;28;20218;-51
2024/01/12 09:21:09;;;;;;;3.47;3.17;;;;;;;-1.52;100.00;100060.75;4142847;28;20229;-53